Time;durP1;ratioP1;P1;durP2;ratioP2;P2;SDS_P1;SDS_P2;PMS_P1;PMS_P2;Temp;Humidity;BMP_temperature;BMP_pressure;BME280_temperature;BME280_humidity;BME280_pressure;Samples;Min_cycle;Max_cycle;Signal;HPM_P1;HPM_P2
2021/12/24 00:00:20;;;;;;;3.20;2.30;;;;;;;7.01;100.00;95737.72;5028209;28;104842;-62
2021/12/24 00:02:49;;;;;;;2.30;2.07;;;;;;;7.08;100.00;95738.34;5028805;27;105049;-62
2021/12/24 00:05:16;;;;;;;2.37;2.17;;;;;;;7.11;100.00;95743.16;5031701;28;101950;-62
2021/12/24 00:07:43;;;;;;;3.20;2.90;;;;;;;7.14;100.00;95740.03;5031648;28;103748;-62
2021/12/24 00:10:11;;;;;;;4.30;2.10;;;;;;;7.09;100.00;95735.47;5030737;28;103997;-62
2021/12/24 00:12:43;;;;;;;4.43;2.27;;;;;;;6.95;100.00;95734.22;5031516;28;101891;-62
2021/12/24 00:15:31;;;;;;;3.27;2.90;;;;;;;6.98;100.00;95733.72;5031515;28;105897;-62
2021/12/24 00:18:07;;;;;;;3.10;2.70;;;;;;;7.00;100.00;95731.66;5035862;28;103305;-62
2021/12/24 00:21:38;;;;;;;4.60;3.10;;;;;;;6.92;100.00;95728.63;5031398;28;102794;-62
2021/12/24 00:37:26;;;;;;;3.57;3.00;;;;;;;6.54;100.00;95710.09;5030835;28;105165;-62
2021/12/24 00:40:03;;;;;;;8.80;5.13;;;;;;;6.40;100.00;95712.28;5030244;28;104064;-62
2021/12/24 00:42:31;;;;;;;9.27;5.37;;;;;;;6.45;100.00;95707.06;5034559;28;101861;-62
2021/12/24 00:44:57;;;;;;;6.27;3.60;;;;;;;6.39;100.00;95702.72;5030363;28;105307;-62
2021/12/24 00:47:25;;;;;;;5.93;3.13;;;;;;;6.34;100.00;95707.94;5030688;28;101804;-62
2021/12/24 00:49:54;;;;;;;4.43;3.00;;;;;;;6.34;100.00;95700.00;5030814;28;105233;-62
2021/12/24 00:52:44;;;;;;;3.27;2.80;;;;;;;6.46;100.00;95697.28;5030373;28;105738;-62
2021/12/24 00:55:09;;;;;;;4.43;2.90;;;;;;;6.33;100.00;95697.63;5030167;28;101984;-62
2021/12/24 00:57:39;;;;;;;5.67;2.60;;;;;;;6.24;100.00;95699.06;5030869;28;105068;-62
2021/12/24 01:00:11;;;;;;;4.83;2.47;;;;;;;6.07;100.00;95698.25;5029876;28;105288;-62
2021/12/24 01:02:38;;;;;;;3.63;2.73;;;;;;;6.04;100.00;95682.88;5030747;28;101827;-62
2021/12/24 01:05:09;;;;;;;4.43;2.90;;;;;;;6.04;100.00;95693.44;5033450;28;104842;-62
2021/12/24 01:07:39;;;;;;;3.57;3.13;;;;;;;5.93;100.00;95692.47;5030561;28;101791;-62
2021/12/24 01:10:07;;;;;;;4.97;3.20;;;;;;;5.92;100.00;95696.16;5030570;28;105644;-62
2021/12/24 01:12:35;;;;;;;6.43;3.57;;;;;;;5.92;100.00;95687.44;5030124;28;105077;-62
2021/12/24 01:15:05;;;;;;;5.40;3.10;;;;;;;5.92;100.00;95685.59;5030558;28;102048;-62
2021/12/24 01:17:39;;;;;;;4.10;3.30;;;;;;;6.03;100.00;95683.94;5030191;28;105273;-62
2021/12/24 01:20:19;;;;;;;4.10;3.20;;;;;;;5.97;100.00;95688.34;5029715;28;105435;-62
2021/12/24 01:25:47;;;;;;;5.30;3.53;;;;;;;5.95;100.00;95684.34;5030317;28;103862;-62
2021/12/24 01:39:24;;;;;;;4.33;2.50;;;;;;;6.27;100.00;95682.75;5030144;28;105578;-62
2021/12/24 01:44:37;;;;;;;2.63;2.40;;;;;;;6.47;100.00;95675.94;5030076;28;102029;-62
2021/12/24 01:47:09;;;;;;;5.57;2.90;;;;;;;6.33;100.00;95674.66;5029975;28;104561;-62
2021/12/24 01:49:37;;;;;;;3.87;2.63;;;;;;;6.26;100.00;95670.56;5029213;28;104301;-62
2021/12/24 01:52:09;;;;;;;3.40;2.90;;;;;;;6.20;100.00;95671.53;5033417;28;101816;-62
2021/12/24 01:54:41;;;;;;;5.20;2.60;;;;;;;6.13;100.00;95670.91;5028659;28;105406;-62
2021/12/24 01:57:08;;;;;;;6.30;3.00;;;;;;;6.11;100.00;95667.72;5029747;28;101969;-62
2021/12/24 01:59:36;;;;;;;4.57;3.27;;;;;;;6.09;100.00;95664.50;5029987;28;104958;-61
2021/12/24 02:02:04;;;;;;;4.10;2.77;;;;;;;6.03;100.00;95657.53;5029073;28;104062;-62
2021/12/24 02:04:33;;;;;;;3.70;2.70;;;;;;;5.95;100.00;95652.66;5029842;28;101815;-62
2021/12/24 02:07:00;;;;;;;3.33;2.90;;;;;;;5.89;100.00;95651.78;5029565;28;105340;-62
2021/12/24 02:09:29;;;;;;;4.43;2.83;;;;;;;5.88;100.00;95652.00;5029228;28;105937;-62
2021/12/24 02:11:58;;;;;;;6.07;2.93;;;;;;;5.90;100.00;95649.94;4999885;28;101847;-62
2021/12/24 02:14:33;;;;;;;3.53;2.67;;;;;;;5.92;100.00;95645.22;5028979;28;105092;-62
2021/12/24 02:28:28;;;;;;;4.03;2.70;;;;;;;6.02;100.00;95635.63;5029591;28;105259;-62
2021/12/24 02:30:55;;;;;;;3.80;2.50;;;;;;;5.98;100.00;95636.34;5028319;28;105325;-62
2021/12/24 02:33:24;;;;;;;4.07;2.80;;;;;;;6.01;100.00;95631.38;5029363;28;102035;-62
2021/12/24 02:35:53;;;;;;;3.57;3.10;;;;;;;6.02;100.00;95626.91;5032156;28;105545;-62
2021/12/24 02:38:20;;;;;;;3.87;2.40;;;;;;;5.99;100.00;95619.47;5029220;28;102279;-62
2021/12/24 02:40:48;;;;;;;6.10;2.80;;;;;;;5.95;100.00;95611.22;5029300;28;105460;-62
2021/12/24 02:43:19;;;;;;;2.67;2.47;;;;;;;6.01;100.00;95620.81;5028655;28;105037;-62
2021/12/24 02:45:48;;;;;;;4.27;2.70;;;;;;;6.07;100.00;95613.78;5028750;28;101925;-62
2021/12/24 02:48:48;;;;;;;3.57;2.40;;;;;;;6.15;100.00;95605.47;5029052;28;105804;-62
2021/12/24 02:54:00;;;;;;;2.83;2.20;;;;;;;6.26;100.00;95597.47;4995124;28;102156;-62
2021/12/24 02:56:30;;;;;;;4.77;2.47;;;;;;;6.30;100.00;95595.13;5028796;28;105499;-62
2021/12/24 02:58:59;;;;;;;2.87;2.27;;;;;;;6.35;100.00;95603.13;5031889;28;105019;-62
2021/12/24 03:01:29;;;;;;;2.90;2.60;;;;;;;6.34;100.00;95599.66;5028783;28;105660;-62
2021/12/24 03:03:57;;;;;;;5.03;2.33;;;;;;;6.30;100.00;95593.31;5027880;28;105159;-62
2021/12/24 03:06:27;;;;;;;3.50;2.30;;;;;;;6.39;100.00;95585.75;5028906;28;101896;-62
2021/12/24 03:08:55;;;;;;;3.83;2.50;;;;;;;6.35;100.00;95590.72;5028963;28;105077;-62
2021/12/24 03:11:24;;;;;;;4.43;2.70;;;;;;;6.32;100.00;95580.66;5028241;28;104028;-62
2021/12/24 03:13:52;;;;;;;4.77;2.63;;;;;;;6.28;100.00;95576.09;5028603;28;101846;-62
2021/12/24 03:16:22;;;;;;;5.53;2.53;;;;;;;6.21;100.00;95580.75;5028655;28;105065;-62
2021/12/24 03:18:51;;;;;;;3.37;2.60;;;;;;;6.17;100.00;95569.09;5028280;28;105459;-62
2021/12/24 03:21:22;;;;;;;4.10;2.50;;;;;;;6.13;100.00;95570.59;5032141;28;101964;-62
2021/12/24 03:26:34;;;;;;;2.90;2.60;;;;;;;6.12;100.00;95550.53;5027484;28;102068;-62
2021/12/24 03:29:02;;;;;;;4.10;2.70;;;;;;;6.05;100.00;95552.56;5028639;28;105765;-62
2021/12/24 03:31:30;;;;;;;3.20;2.60;;;;;;;6.05;100.00;95553.34;5027739;28;104980;-62
2021/12/24 03:33:58;;;;;;;3.40;2.87;;;;;;;6.05;100.00;95540.13;5028757;28;101835;-62
2021/12/24 03:36:27;;;;;;;3.17;2.83;;;;;;;6.07;100.00;95546.00;5028460;27;105434;-62
2021/12/24 03:38:57;;;;;;;4.23;2.87;;;;;;;6.07;100.00;95546.00;5030752;28;104126;-61
2021/12/24 03:41:25;;;;;;;4.07;3.07;;;;;;;6.03;100.00;95541.41;5031881;28;102054;-62
2021/12/24 03:43:54;;;;;;;3.87;2.37;;;;;;;5.92;100.00;95529.13;5034882;28;105123;-62
2021/12/24 03:46:30;;;;;;;6.00;2.80;;;;;;;5.83;100.00;95525.31;5031743;28;101991;-62
2021/12/24 03:49:01;;;;;;;8.17;2.77;;;;;;;5.75;100.00;95521.22;5031881;28;104841;-62
2021/12/24 03:51:38;;;;;;;6.70;3.03;;;;;;;5.73;100.00;95506.66;5031242;28;105415;-62
2021/12/24 03:56:54;;;;;;;3.67;2.90;;;;;;;5.53;100.00;95501.06;5031476;28;104789;-62
2021/12/24 03:59:41;;;;;;;4.93;3.37;;;;;;;5.46;100.00;95503.09;5029607;28;103979;-62
2021/12/24 04:02:38;;;;;;;5.40;3.47;;;;;;;5.47;100.00;95497.56;5026987;27;102312;-62
2021/12/24 04:05:24;;;;;;;5.77;3.47;;;;;;;5.42;100.00;95500.13;5030247;28;102053;-62
2021/12/24 04:08:09;;;;;;;6.13;2.97;;;;;;;5.39;100.00;95494.50;5032845;27;102380;-62
2021/12/24 04:10:56;;;;;;;4.00;3.33;;;;;;;5.41;100.00;95492.44;5031457;28;105144;-62
2021/12/24 04:13:34;;;;;;;3.23;2.63;;;;;;;5.35;100.00;95488.16;5030949;28;105841;-61
2021/12/24 04:16:02;;;;;;;4.57;3.20;;;;;;;5.30;100.00;95491.47;5031308;28;102103;-62
2021/12/24 04:18:41;;;;;;;5.53;3.17;;;;;;;5.29;100.00;95489.88;5031397;28;105070;-62
2021/12/24 04:26:39;;;;;;;4.20;3.03;;;;;;;5.21;100.00;95489.47;5031359;28;105602;-62
2021/12/24 04:29:07;;;;;;;4.53;2.70;;;;;;;5.22;100.00;95480.53;5034160;28;105484;-62
2021/12/24 04:31:42;;;;;;;3.37;2.70;;;;;;;5.24;100.00;95479.25;5031146;28;104396;-62
2021/12/24 04:34:38;;;;;;;5.20;2.93;;;;;;;5.17;100.00;95480.44;5024866;27;102630;-62
2021/12/24 04:39:57;;;;;;;4.83;2.97;;;;;;;5.07;100.00;95477.66;5007783;28;105336;-62
2021/12/24 05:02:06;;;;;;;3.10;2.67;;;;;;;4.89;100.00;95483.13;5030719;28;104828;-61
2021/12/24 05:04:45;;;;;;;4.77;3.03;;;;;;;4.93;100.00;95469.28;5030227;28;103999;-62
2021/12/24 05:07:28;;;;;;;5.00;3.40;;;;;;;4.87;100.00;95485.22;5030595;28;102116;-62
2021/12/24 05:09:56;;;;;;;4.07;3.17;;;;;;;4.89;100.00;95469.97;5030708;28;103627;-61
2021/12/24 05:12:23;;;;;;;3.23;2.90;;;;;;;4.84;100.00;95480.41;5029948;28;105381;-62
2021/12/24 05:14:58;;;;;;;4.63;3.00;;;;;;;4.81;100.00;95470.34;5030756;28;102012;-62
2021/12/24 05:18:10;;;;;;;4.13;3.07;;;;;;;4.82;100.00;95456.16;5034414;28;103310;-61
2021/12/24 05:23:45;;;;;;;3.47;2.73;;;;;;;4.97;100.00;95443.25;5030365;28;105156;-62
2021/12/24 05:26:13;;;;;;;3.03;2.73;;;;;;;4.97;100.00;95457.19;5029781;28;105660;-62
2021/12/24 05:28:41;;;;;;;4.50;2.67;;;;;;;5.05;100.00;95451.56;5030467;28;102144;-61
2021/12/24 05:31:10;;;;;;;5.57;2.80;;;;;;;5.08;100.00;95434.47;5030174;28;105232;-62
2021/12/24 05:33:37;;;;;;;4.30;2.53;;;;;;;5.04;100.00;95455.22;5029648;28;104089;-61
2021/12/24 05:36:04;;;;;;;3.37;2.77;;;;;;;5.14;100.00;95452.72;5030121;28;101924;-61
2021/12/24 05:38:34;;;;;;;2.73;2.50;;;;;;;5.15;100.00;95451.72;5030223;28;105486;-62
2021/12/24 05:41:01;;;;;;;3.63;2.53;;;;;;;5.18;100.00;95482.06;5032821;28;105217;-62
2021/12/24 05:43:28;;;;;;;3.70;2.70;;;;;;;5.18;100.00;95466.25;5030182;28;104599;-62
2021/12/24 05:45:56;;;;;;;6.63;2.70;;;;;;;5.16;100.00;95469.13;5029308;28;105561;-62
2021/12/24 05:48:29;;;;;;;4.03;2.80;;;;;;;5.13;100.00;95469.59;5030285;28;102053;-62
2021/12/24 05:51:05;;;;;;;3.63;2.70;;;;;;;5.05;100.00;95477.91;5029951;28;105190;-62
2021/12/24 05:53:47;;;;;;;4.13;2.80;;;;;;;5.01;100.00;95453.06;5027405;27;102440;-62
2021/12/24 05:56:20;;;;;;;2.77;2.57;;;;;;;4.96;100.00;95468.78;5029175;28;101950;-62
2021/12/24 05:58:53;;;;;;;3.13;2.80;;;;;;;4.92;100.00;95464.22;5030153;28;104958;-62
2021/12/24 06:01:21;;;;;;;5.77;2.90;;;;;;;4.85;100.00;95471.50;5011908;28;104601;-62
2021/12/24 06:03:50;;;;;;;3.77;2.83;;;;;;;4.89;100.00;95467.31;5034708;27;101850;-62
2021/12/24 06:06:18;;;;;;;6.30;3.37;;;;;;;4.96;100.00;95466.13;5030156;28;102864;-62
2021/12/24 06:08:45;;;;;;;3.67;2.97;;;;;;;4.90;100.00;95469.72;5032004;27;101826;-61
2021/12/24 06:11:12;;;;;;;4.00;2.87;;;;;;;4.88;100.00;95477.06;5029548;28;105129;-62
2021/12/24 06:13:39;;;;;;;5.13;2.80;;;;;;;4.86;100.00;95480.97;5030525;28;102729;-61
2021/12/24 06:16:08;;;;;;;4.97;2.70;;;;;;;4.80;100.00;95487.19;5030869;27;101951;-61
2021/12/24 06:18:38;;;;;;;4.57;3.20;;;;;;;4.77;100.00;95498.19;5029612;28;103910;-62
2021/12/24 06:21:07;;;;;;;4.77;3.33;;;;;;;4.71;100.00;95499.94;5030163;28;102692;-62
2021/12/24 06:23:36;;;;;;;5.13;3.03;;;;;;;4.71;100.00;95488.59;5030888;27;101871;-62
2021/12/24 06:26:03;;;;;;;4.07;3.30;;;;;;;4.69;100.00;95485.41;5033548;28;102881;-62
2021/12/24 06:28:31;;;;;;;6.03;3.03;;;;;;;4.67;100.00;95500.63;5029535;28;102171;-62
2021/12/24 06:30:58;;;;;;;5.80;3.17;;;;;;;4.68;100.00;95499.59;5029248;28;105383;-62
2021/12/24 06:33:26;;;;;;;4.17;3.00;;;;;;;4.65;100.00;95508.75;5028434;28;105678;-62
2021/12/24 06:35:56;;;;;;;3.63;2.77;;;;;;;4.66;100.00;95499.84;5030670;28;102051;-62
2021/12/24 06:38:25;;;;;;;4.73;2.90;;;;;;;4.68;100.00;95504.84;5029443;28;105712;-62
2021/12/24 06:40:51;;;;;;;5.57;2.87;;;;;;;4.68;100.00;95510.13;5028561;28;104198;-62
2021/12/24 06:43:18;;;;;;;3.70;2.40;;;;;;;4.69;100.00;95515.16;5030682;27;101905;-62
2021/12/24 06:45:47;;;;;;;4.77;2.83;;;;;;;4.69;100.00;95504.63;5032910;27;102755;-62
2021/12/24 06:48:14;;;;;;;4.30;2.67;;;;;;;4.72;100.00;95506.00;5012366;28;101793;-62
2021/12/24 06:50:42;;;;;;;2.63;2.40;;;;;;;4.73;100.00;95504.97;5029237;28;102877;-62
2021/12/24 06:53:09;;;;;;;3.63;2.47;;;;;;;4.68;100.00;95504.84;5028435;28;103702;-62
2021/12/24 06:55:38;;;;;;;3.03;2.53;;;;;;;4.70;100.00;95506.22;5030265;28;102831;-62
2021/12/24 06:58:08;;;;;;;2.77;2.43;;;;;;;4.73;100.00;95510.22;5029005;28;105195;-62
2021/12/24 07:00:38;;;;;;;4.13;2.40;;;;;;;4.80;100.00;95501.16;5028375;28;105159;-62
2021/12/24 07:03:08;;;;;;;4.30;3.10;;;;;;;4.79;100.00;95514.53;5028880;28;103350;-62
2021/12/24 07:05:36;;;;;;;4.17;2.30;;;;;;;4.85;100.00;95503.09;5028794;28;104848;-61
2021/12/24 07:08:03;;;;;;;3.00;2.70;;;;;;;4.90;100.00;95508.44;5031743;28;105703;-62
2021/12/24 07:10:30;;;;;;;3.43;2.53;;;;;;;4.94;100.00;95520.09;5028741;28;104197;-62
2021/12/24 07:12:59;;;;;;;3.07;2.33;;;;;;;4.99;100.00;95517.56;5032220;27;102704;-62
2021/12/24 07:15:26;;;;;;;3.63;2.60;;;;;;;4.98;100.00;95518.59;5033603;27;102283;-61
2021/12/24 07:17:53;;;;;;;3.30;2.53;;;;;;;4.97;100.00;95512.53;5032258;28;103828;-62
2021/12/24 07:20:20;;;;;;;3.00;2.40;;;;;;;4.97;100.00;95512.53;5031693;28;105414;-62
2021/12/24 07:22:48;;;;;;;3.03;2.43;;;;;;;4.98;100.00;95514.13;5032326;28;101911;-62
2021/12/24 07:25:15;;;;;;;3.73;2.63;;;;;;;4.96;100.00;95518.03;5032356;28;104074;-62
2021/12/24 07:27:43;;;;;;;3.33;2.90;;;;;;;4.96;100.00;95507.50;5031603;28;105415;-62
2021/12/24 07:30:13;;;;;;;3.27;2.60;;;;;;;4.96;100.00;95520.69;5037094;27;102079;-61
2021/12/24 07:32:41;;;;;;;3.83;2.53;;;;;;;4.99;100.00;95525.47;5032928;27;102904;-61
2021/12/24 07:35:10;;;;;;;3.33;2.53;;;;;;;4.99;100.00;95510.47;5031934;28;101860;-62
2021/12/24 07:37:37;;;;;;;2.93;2.50;;;;;;;4.96;100.00;95525.94;5033001;28;104483;-62
2021/12/24 07:40:04;;;;;;;2.90;2.60;;;;;;;5.00;100.00;95527.06;5032301;28;102926;-62
2021/12/24 07:42:32;;;;;;;3.77;2.43;;;;;;;5.00;100.00;95522.59;5033065;28;101820;-62
2021/12/24 07:45:00;;;;;;;2.87;2.53;;;;;;;5.00;100.00;95516.50;5032929;27;102377;-62
2021/12/24 07:47:32;;;;;;;3.63;2.70;;;;;;;4.99;100.00;95523.63;5031529;27;103993;-62
2021/12/24 07:50:03;;;;;;;2.57;2.27;;;;;;;5.00;100.00;95527.88;5032956;28;101664;-62
2021/12/24 07:52:30;;;;;;;3.17;2.47;;;;;;;4.98;100.00;95514.13;5034486;28;105646;-62
2021/12/24 07:54:57;;;;;;;3.43;2.70;;;;;;;4.99;100.00;95515.72;5031118;28;102206;-62
2021/12/24 07:57:25;;;;;;;3.47;2.57;;;;;;;4.99;100.00;95514.91;5032814;27;102409;-62
2021/12/24 07:59:52;;;;;;;4.43;2.27;;;;;;;5.02;100.00;95514.47;5032037;28;102622;-62
2021/12/24 08:02:26;;;;;;;2.73;2.43;;;;;;;5.01;100.00;95518.09;5031252;28;101831;-62
2021/12/24 08:05:00;;;;;;;3.80;2.70;;;;;;;5.01;100.00;95520.75;5031324;28;104732;-62
2021/12/24 08:07:28;;;;;;;2.97;2.50;;;;;;;5.08;100.00;95513.50;5030805;28;105479;-62
2021/12/24 08:09:55;;;;;;;2.33;2.13;;;;;;;5.14;100.00;95523.09;5031210;28;102188;-62
2021/12/24 08:12:22;;;;;;;3.00;2.37;;;;;;;5.13;100.00;95517.03;5030865;28;104869;-63
2021/12/24 08:14:49;;;;;;;3.10;2.30;;;;;;;5.11;100.00;95518.28;5032406;28;103947;-64
2021/12/24 08:17:17;;;;;;;3.80;2.40;;;;;;;5.13;100.00;95517.03;5029423;28;105588;-64
2021/12/24 08:19:44;;;;;;;3.33;2.13;;;;;;;5.14;100.00;95521.25;5029170;28;105774;-61
2021/12/24 08:22:13;;;;;;;3.43;2.47;;;;;;;5.17;100.00;95518.16;5029839;28;101907;-61
2021/12/24 08:24:41;;;;;;;4.47;2.50;;;;;;;5.19;100.00;95523.19;5030076;27;104958;-61
2021/12/24 08:27:09;;;;;;;3.07;2.60;;;;;;;5.22;100.00;95520.06;5030381;28;105633;-61
2021/12/24 08:29:37;;;;;;;4.07;2.57;;;;;;;5.23;100.00;95527.75;5030853;28;101873;-61
2021/12/24 08:32:05;;;;;;;2.90;2.43;;;;;;;5.27;100.00;95522.78;5030725;28;103708;-61
2021/12/24 08:34:33;;;;;;;2.90;2.50;;;;;;;5.27;100.00;95518.31;5030154;28;105464;-61
2021/12/24 08:37:00;;;;;;;5.03;2.90;;;;;;;5.33;100.00;95519.19;5035486;28;101738;-61
2021/12/24 08:39:31;;;;;;;3.63;2.30;;;;;;;5.34;100.00;95520.81;5030075;28;105516;-62
2021/12/24 08:41:59;;;;;;;3.10;2.80;;;;;;;5.31;100.00;95521.28;5030717;28;101990;-63
2021/12/24 08:44:29;;;;;;;5.50;2.70;;;;;;;5.32;100.00;95528.16;5030659;28;105661;-64
2021/12/24 08:47:00;;;;;;;4.87;2.80;;;;;;;5.28;100.00;95521.75;5029732;28;105494;-61
2021/12/24 08:49:27;;;;;;;4.57;2.50;;;;;;;5.23;100.00;95517.19;5030694;28;101875;-61
2021/12/24 08:51:55;;;;;;;3.17;2.37;;;;;;;5.24;100.00;95523.28;5030566;28;104904;-61
2021/12/24 08:54:24;;;;;;;4.00;2.43;;;;;;;5.24;100.00;95523.28;5029630;28;106300;-61
2021/12/24 08:56:53;;;;;;;4.50;2.60;;;;;;;5.25;100.00;95528.28;5033804;28;101820;-61
2021/12/24 08:59:20;;;;;;;4.20;2.77;;;;;;;5.30;100.00;95527.59;5029671;28;105316;-60
2021/12/24 09:01:47;;;;;;;5.37;2.77;;;;;;;5.34;100.00;95536.63;5030005;28;101872;-61
2021/12/24 09:04:15;;;;;;;3.30;2.53;;;;;;;5.40;100.00;95525.91;5030421;28;104778;-62
2021/12/24 09:06:43;;;;;;;4.67;2.93;;;;;;;5.39;100.00;95531.41;5031088;28;103149;-62
2021/12/24 09:09:11;;;;;;;4.07;2.80;;;;;;;5.37;100.00;95528.22;5030192;28;101836;-61
2021/12/24 09:11:40;;;;;;;5.70;3.37;;;;;;;5.34;100.00;95534.78;5030029;28;104955;-62
2021/12/24 09:14:09;;;;;;;3.93;2.83;;;;;;;5.38;100.00;95528.00;5029620;28;105311;-61
2021/12/24 09:16:39;;;;;;;5.47;3.10;;;;;;;5.34;100.00;95526.09;5030064;28;102114;-62
2021/12/24 09:19:09;;;;;;;4.50;3.23;;;;;;;5.30;100.00;95522.31;5032897;28;105389;-62
2021/12/24 09:21:37;;;;;;;4.70;3.27;;;;;;;5.20;100.00;95522.97;5031230;27;101919;-62
2021/12/24 09:24:07;;;;;;;4.47;3.33;;;;;;;5.21;100.00;95521.91;5029826;28;104906;-61
2021/12/24 09:26:34;;;;;;;5.13;3.47;;;;;;;5.23;100.00;95521.69;5029432;28;105315;-63
2021/12/24 09:29:04;;;;;;;5.00;3.40;;;;;;;5.14;100.00;95517.81;5030035;28;101767;-61
2021/12/24 09:31:48;;;;;;;5.50;3.67;;;;;;;5.15;100.00;95517.59;5029859;28;103749;-61
2021/12/24 09:34:16;;;;;;;5.77;3.33;;;;;;;5.13;100.00;95511.75;4951303;28;103191;-60
2021/12/24 09:36:43;;;;;;;6.40;3.30;;;;;;;5.13;100.00;95509.13;4951169;28;102627;-62
2021/12/24 09:39:11;;;;;;;5.27;3.23;;;;;;;5.05;100.00;95525.31;4952526;28;105250;-63
2021/12/24 09:41:39;;;;;;;4.40;3.27;;;;;;;5.11;100.00;95513.84;4954982;28;105309;-63
2021/12/24 09:44:07;;;;;;;4.87;3.10;;;;;;;5.10;100.00;95519.34;4951874;28;104152;-63
2021/12/24 09:46:40;;;;;;;5.93;3.63;;;;;;;5.01;100.00;95508.38;4951623;28;104379;-61
2021/12/24 09:49:08;;;;;;;4.47;3.13;;;;;;;5.00;100.00;95508.63;4952056;28;102393;-61
2021/12/24 09:51:38;;;;;;;6.93;3.40;;;;;;;5.08;100.00;95508.25;4951951;28;105299;-60
2021/12/24 09:54:10;;;;;;;4.97;3.57;;;;;;;5.11;100.00;95507.75;4951404;28;106207;-59
2021/12/24 09:56:38;;;;;;;6.00;4.43;;;;;;;5.12;100.00;95506.75;4952013;28;101888;-60
2021/12/24 09:59:06;;;;;;;7.07;4.70;;;;;;;5.19;100.00;95505.53;4951474;28;105859;-59
2021/12/24 10:01:39;;;;;;;4.47;3.90;;;;;;;5.23;100.00;95501.38;4968093;28;102799;-60
2021/12/24 10:04:09;;;;;;;8.40;4.13;;;;;;;5.20;100.00;95501.06;4955182;28;102163;-63
2021/12/24 10:06:37;;;;;;;6.50;4.27;;;;;;;5.20;100.00;95506.34;4951570;28;104610;-63
2021/12/24 10:09:08;;;;;;;4.73;3.43;;;;;;;5.18;100.00;95503.94;4968117;28;101884;-63
2021/12/24 10:11:50;;;;;;;5.67;3.93;;;;;;;5.24;100.00;95495.06;5001087;28;102871;-64
2021/12/24 10:14:20;;;;;;;7.60;4.80;;;;;;;5.25;100.00;95499.28;5029843;27;102891;-64
2021/12/24 10:16:51;;;;;;;8.20;6.00;;;;;;;5.24;100.00;95508.25;5030561;27;101734;-64
2021/12/24 10:19:19;;;;;;;7.33;5.30;;;;;;;5.36;100.00;95516.09;5029269;28;105202;-64
2021/12/24 10:21:46;;;;;;;7.40;5.90;;;;;;;5.31;100.00;95510.75;5028488;28;104526;-63
2021/12/24 10:24:28;;;;;;;8.33;5.03;;;;;;;5.33;100.00;95504.19;5029430;28;102202;-63
2021/12/24 10:26:57;;;;;;;10.70;7.80;;;;;;;5.40;100.00;95496.91;5032213;28;105412;-62
2021/12/24 10:30:02;;;;;;;11.33;6.77;;;;;;;5.31;100.00;95502.84;5030701;27;102135;-63
2021/12/24 10:32:39;;;;;;;11.13;4.67;;;;;;;5.26;100.00;95508.00;5029272;28;105237;-64
2021/12/24 10:35:41;;;;;;;5.80;4.60;;;;;;;5.33;100.00;95511.28;5030441;28;102620;-64
2021/12/24 10:38:11;;;;;;;7.13;5.43;;;;;;;5.38;100.00;95511.38;5030661;28;102159;-64
2021/12/24 10:40:49;;;;;;;8.10;5.40;;;;;;;5.45;100.00;95519.94;5030202;27;102946;-64
2021/12/24 10:43:25;;;;;;;7.63;4.97;;;;;;;5.46;100.00;95509.13;5029518;28;103486;-65
2021/12/24 10:46:10;;;;;;;6.43;5.17;;;;;;;5.54;100.00;95508.75;5029070;27;103417;-76
2021/12/24 10:48:46;;;;;;;7.17;5.57;;;;;;;5.47;100.00;95509.94;5030465;27;102350;-73
2021/12/24 10:51:21;;;;;;;7.67;5.70;;;;;;;5.51;100.00;95509.22;5033382;27;101755;-74
2021/12/24 10:54:04;;;;;;;7.33;4.97;;;;;;;5.40;100.00;95509.31;5012747;28;105767;-75
2021/12/24 10:56:31;;;;;;;8.70;6.43;;;;;;;5.43;100.00;95506.19;5011700;28;106986;-74
2021/12/24 10:59:05;;;;;;;9.03;6.13;;;;;;;5.38;100.00;95503.47;5029041;28;101909;-74
2021/12/24 11:01:31;;;;;;;11.43;6.73;;;;;;;5.39;100.00;95508.50;5062981;27;105646;-74
2021/12/24 11:04:00;;;;;;;8.97;6.00;;;;;;;5.46;100.00;95503.09;5028051;28;105041;-74
2021/12/24 11:06:32;;;;;;;8.53;5.40;;;;;;;5.50;100.00;95502.34;5029329;28;101868;-74
2021/12/24 11:08:59;;;;;;;9.43;5.03;;;;;;;5.52;100.00;95496.84;5029274;28;104841;-74
2021/12/24 11:11:35;;;;;;;6.03;4.70;;;;;;;5.48;100.00;95493.09;5065557;27;105165;-74
2021/12/24 11:14:03;;;;;;;6.23;4.47;;;;;;;5.45;100.00;95493.59;5029065;28;105317;-74
2021/12/24 11:16:33;;;;;;;5.67;4.60;;;;;;;5.43;100.00;95495.63;5028820;28;105354;-74
2021/12/24 11:19:03;;;;;;;6.67;4.33;;;;;;;5.44;100.00;95491.97;5028755;28;101906;-74
2021/12/24 11:21:32;;;;;;;5.97;4.27;;;;;;;5.43;100.00;95493.81;5015833;28;105534;-74
2021/12/24 11:23:59;;;;;;;7.47;5.53;;;;;;;5.42;100.00;95488.78;5028229;28;105356;-74
2021/12/24 11:26:28;;;;;;;4.63;3.70;;;;;;;5.35;100.00;95488.91;5030097;28;101693;-75
2021/12/24 11:29:14;;;;;;;11.63;6.97;;;;;;;5.38;100.00;95485.00;5029138;28;104809;-75
2021/12/24 11:31:43;;;;;;;5.57;4.00;;;;;;;5.36;100.00;95487.09;5042160;27;105532;-75
2021/12/24 11:34:12;;;;;;;5.13;4.33;;;;;;;5.37;100.00;95481.59;5012529;28;101884;-75
2021/12/24 11:36:39;;;;;;;8.20;5.37;;;;;;;5.43;100.00;95485.09;5026781;28;105013;-75
2021/12/24 11:39:07;;;;;;;9.67;5.50;;;;;;;5.36;100.00;95476.56;5028673;28;101849;-75
2021/12/24 11:41:35;;;;;;;5.33;4.57;;;;;;;5.39;100.00;95473.41;5008565;28;104852;-79
2021/12/24 11:44:06;;;;;;;29.53;16.03;;;;;;;5.39;100.00;95470.78;5007827;28;105052;-80
2021/12/24 11:46:37;;;;;;;20.83;12.93;;;;;;;5.35;100.00;95474.97;5027761;28;102124;-80
2021/12/24 11:49:04;;;;;;;8.90;5.37;;;;;;;5.35;100.00;95467.06;5027330;28;105697;-79
2021/12/24 11:51:40;;;;;;;8.50;6.47;;;;;;;5.37;100.00;95467.59;5028290;28;105343;-79
2021/12/24 11:54:10;;;;;;;9.40;6.47;;;;;;;5.38;100.00;95462.09;5028474;28;101866;-79
2021/12/24 11:56:41;;;;;;;14.13;9.03;;;;;;;5.45;100.00;95454.03;5031601;28;106590;-79
2021/12/24 11:59:12;;;;;;;26.73;18.03;;;;;;;5.47;100.00;95460.66;5030175;27;101899;-79
2021/12/24 12:01:43;;;;;;;10.47;7.70;;;;;;;5.48;100.00;95454.34;5031526;28;103842;-79
2021/12/24 12:04:52;;;;;;;12.33;9.87;;;;;;;5.51;100.00;95445.16;5033079;28;102818;-78
2021/12/24 12:07:25;;;;;;;8.67;6.10;;;;;;;5.56;100.00;95443.38;5031953;28;101926;-78
2021/12/24 12:09:52;;;;;;;13.23;9.77;;;;;;;5.62;100.00;95433.72;5032132;28;104027;-79
2021/12/24 12:12:33;;;;;;;15.87;10.20;;;;;;;5.72;100.00;95432.00;5032444;27;102826;-79
2021/12/24 12:15:26;;;;;;;13.43;10.43;;;;;;;5.79;100.00;95437.91;5031108;28;101721;-78
2021/12/24 12:17:58;;;;;;;10.90;8.43;;;;;;;5.86;100.00;95433.28;5031213;28;105213;-79
2021/12/24 12:20:43;;;;;;;8.40;6.07;;;;;;;5.94;100.00;95429.44;5034267;28;105207;-79
2021/12/24 12:23:51;;;;;;;7.73;5.07;;;;;;;6.06;100.00;95428.25;5031807;28;104060;-80
2021/12/24 12:27:08;;;;;;;14.87;9.43;;;;;;;6.20;100.00;95433.97;5032588;27;101793;-79
2021/12/24 12:29:44;;;;;;;15.67;11.13;;;;;;;6.43;100.00;95423.16;5027071;28;101901;-79
2021/12/24 12:32:27;;;;;;;5.63;4.20;;;;;;;6.45;100.00;95416.59;5030873;28;105073;-79
2021/12/24 12:35:02;;;;;;;18.63;11.13;;;;;;;6.50;100.00;95419.25;5029319;28;105253;-79
2021/12/24 12:37:32;;;;;;;18.97;11.10;;;;;;;6.55;100.00;95410.63;5030937;28;101843;-78
2021/12/24 12:40:07;;;;;;;13.17;8.27;;;;;;;6.63;100.00;95420.72;5030098;28;104984;-78
2021/12/24 12:43:05;;;;;;;39.13;21.43;;;;;;;6.69;100.00;95417.06;5031020;28;103767;-79
2021/12/24 12:46:06;;;;;;;52.60;27.17;;;;;;;6.74;100.00;95407.38;5034201;28;101873;-78
2021/12/24 12:48:47;;;;;;;16.43;10.83;;;;;;;6.82;100.00;95411.41;5045299;27;104133;-78
2021/12/24 12:51:14;;;;;;;48.37;25.97;;;;;;;6.83;100.00;95418.28;5030560;28;101820;-78
2021/12/24 12:53:42;;;;;;;46.53;26.33;;;;;;;6.89;100.00;95409.34;5031672;28;102605;-78
2021/12/24 12:56:17;;;;;;;33.97;17.53;;;;;;;6.96;100.00;95408.09;5029642;28;104293;-78
2021/12/24 12:59:06;;;;;;;154.77;71.40;;;;;;;7.06;100.00;95407.38;5012885;28;101863;-78
2021/12/24 13:01:34;;;;;;;32.20;17.17;;;;;;;7.29;100.00;95405.19;5030255;28;104876;-78
2021/12/24 13:07:49;;;;;;;30.77;17.27;;;;;;;7.16;100.00;95394.25;5014777;28;102162;-72
2021/12/24 13:10:18;;;;;;;52.30;29.77;;;;;;;7.14;100.00;95399.78;5024240;27;105267;-69